sensor_id;sensor_type;location;lat;lon;timestamp;P1;durP1;ratioP1;P2;durP2;ratioP2
64351;SDS011;50680;52.626;-8.668;2023-06-14T10:51:00;9.38;;;6.03;;
64351;SDS011;50680;52.626;-8.668;2023-06-14T10:53:28;8.77;;;6.82;;
64351;SDS011;50680;52.626;-8.668;2023-06-14T10:55:56;8.80;;;6.38;;
64351;SDS011;50680;52.626;-8.668;2023-06-14T10:58:22;11.25;;;7.10;;
64351;SDS011;50680;52.626;-8.668;2023-06-14T11:00:50;12.90;;;7.32;;
64351;SDS011;50680;52.626;-8.668;2023-06-14T11:06:14;11.80;;;7.50;;
64351;SDS011;50680;52.626;-8.668;2023-06-14T11:11:34;10.30;;;7.93;;
64351;SDS011;50680;52.626;-8.668;2023-06-14T11:14:02;12.70;;;7.65;;
64351;SDS011;50680;52.626;-8.668;2023-06-14T11:16:30;8.98;;;7.45;;
64351;SDS011;50680;52.626;-8.668;2023-06-14T11:19:02;9.57;;;7.75;;
64351;SDS011;50680;52.626;-8.668;2023-06-14T11:21:31;9.05;;;7.63;;
64351;SDS011;50680;52.626;-8.668;2023-06-14T11:24:00;11.38;;;8.73;;
64351;SDS011;50680;52.626;-8.668;2023-06-14T11:26:27;12.60;;;8.63;;
64351;SDS011;50680;52.626;-8.668;2023-06-14T11:28:56;9.88;;;7.97;;
64351;SDS011;50680;52.626;-8.668;2023-06-14T11:31:27;10.45;;;7.57;;
64351;SDS011;50680;52.626;-8.668;2023-06-14T11:33:58;8.82;;;7.93;;
64351;SDS011;50680;52.626;-8.668;2023-06-14T11:36:26;11.57;;;8.05;;
64351;SDS011;50680;52.626;-8.668;2023-06-14T11:38:58;11.73;;;8.02;;
64351;SDS011;50680;52.626;-8.668;2023-06-14T11:41:31;9.25;;;7.38;;
64351;SDS011;50680;52.626;-8.668;2023-06-14T11:44:13;9.95;;;7.20;;
64351;SDS011;50680;52.626;-8.668;2023-06-14T11:46:40;10.40;;;6.15;;
64351;SDS011;50680;52.626;-8.668;2023-06-14T11:49:07;9.00;;;6.70;;
64351;SDS011;50680;52.626;-8.668;2023-06-14T11:51:36;10.15;;;7.05;;
64351;SDS011;50680;52.626;-8.668;2023-06-14T11:54:03;10.60;;;7.53;;
64351;SDS011;50680;52.626;-8.668;2023-06-14T11:56:32;10.00;;;6.82;;
64351;SDS011;50680;52.626;-8.668;2023-06-14T11:58:59;8.55;;;6.50;;
64351;SDS011;50680;52.626;-8.668;2023-06-14T12:01:29;7.57;;;6.50;;
64351;SDS011;50680;52.626;-8.668;2023-06-14T12:03:57;9.38;;;6.78;;
64351;SDS011;50680;52.626;-8.668;2023-06-14T12:06:29;12.27;;;6.47;;
64351;SDS011;50680;52.626;-8.668;2023-06-14T12:09:00;7.85;;;7.03;;
64351;SDS011;50680;52.626;-8.668;2023-06-14T12:11:34;12.80;;;7.95;;
64351;SDS011;50680;52.626;-8.668;2023-06-14T12:14:03;11.20;;;8.20;;
64351;SDS011;50680;52.626;-8.668;2023-06-14T12:16:37;11.38;;;7.47;;
64351;SDS011;50680;52.626;-8.668;2023-06-14T12:19:15;8.05;;;7.03;;
64351;SDS011;50680;52.626;-8.668;2023-06-14T12:21:45;11.77;;;8.02;;
64351;SDS011;50680;52.626;-8.668;2023-06-14T12:24:15;8.95;;;7.93;;
64351;SDS011;50680;52.626;-8.668;2023-06-14T12:26:42;11.88;;;8.00;;
64351;SDS011;50680;52.626;-8.668;2023-06-14T12:29:09;9.75;;;7.68;;
64351;SDS011;50680;52.626;-8.668;2023-06-14T12:31:39;12.70;;;8.70;;
64351;SDS011;50680;52.626;-8.668;2023-06-14T12:34:07;12.38;;;8.23;;
64351;SDS011;50680;52.626;-8.668;2023-06-14T12:36:34;12.30;;;8.40;;
64351;SDS011;50680;52.626;-8.668;2023-06-14T12:39:06;13.57;;;9.70;;
64351;SDS011;50680;52.626;-8.668;2023-06-14T12:41:34;11.00;;;8.75;;
64351;SDS011;50680;52.626;-8.668;2023-06-14T12:44:03;13.25;;;9.38;;
64351;SDS011;50680;52.626;-8.668;2023-06-14T12:46:33;16.30;;;9.17;;
64351;SDS011;50680;52.626;-8.668;2023-06-14T12:49:01;11.63;;;9.20;;
64351;SDS011;50680;52.626;-8.668;2023-06-14T12:51:28;16.55;;;9.25;;
64351;SDS011;50680;52.626;-8.668;2023-06-14T12:53:56;11.57;;;8.55;;
64351;SDS011;50680;52.626;-8.668;2023-06-14T12:56:22;11.95;;;8.07;;
64351;SDS011;50680;52.626;-8.668;2023-06-14T12:58:50;11.98;;;9.07;;
64351;SDS011;50680;52.626;-8.668;2023-06-14T13:01:17;12.18;;;8.57;;
64351;SDS011;50680;52.626;-8.668;2023-06-14T13:03:45;11.85;;;8.82;;
64351;SDS011;50680;52.626;-8.668;2023-06-14T13:06:13;11.65;;;8.43;;
64351;SDS011;50680;52.626;-8.668;2023-06-14T13:08:40;11.55;;;8.07;;
64351;SDS011;50680;52.626;-8.668;2023-06-14T13:11:07;12.90;;;8.48;;
64351;SDS011;50680;52.626;-8.668;2023-06-14T13:13:34;13.43;;;8.32;;
64351;SDS011;50680;52.626;-8.668;2023-06-14T13:16:01;9.77;;;8.20;;
64351;SDS011;50680;52.626;-8.668;2023-06-14T13:18:29;10.73;;;8.48;;
64351;SDS011;50680;52.626;-8.668;2023-06-14T13:20:55;12.30;;;8.45;;
64351;SDS011;50680;52.626;-8.668;2023-06-14T13:23:22;11.07;;;7.60;;
64351;SDS011;50680;52.626;-8.668;2023-06-14T13:25:49;11.40;;;8.23;;
64351;SDS011;50680;52.626;-8.668;2023-06-14T13:28:17;9.57;;;8.07;;
64351;SDS011;50680;52.626;-8.668;2023-06-14T13:30:44;13.65;;;8.85;;
64351;SDS011;50680;52.626;-8.668;2023-06-14T13:33:11;10.32;;;7.97;;
64351;SDS011;50680;52.626;-8.668;2023-06-14T13:35:38;13.23;;;8.80;;
64351;SDS011;50680;52.626;-8.668;2023-06-14T13:38:05;9.63;;;7.85;;
64351;SDS011;50680;52.626;-8.668;2023-06-14T13:40:31;11.52;;;9.02;;
64351;SDS011;50680;52.626;-8.668;2023-06-14T13:42:58;15.23;;;8.40;;
64351;SDS011;50680;52.626;-8.668;2023-06-14T13:45:26;16.55;;;8.77;;
64351;SDS011;50680;52.626;-8.668;2023-06-14T13:47:53;10.57;;;7.65;;
64351;SDS011;50680;52.626;-8.668;2023-06-14T13:50:21;10.00;;;8.55;;
64351;SDS011;50680;52.626;-8.668;2023-06-14T13:52:48;9.98;;;8.43;;
64351;SDS011;50680;52.626;-8.668;2023-06-14T13:55:14;13.05;;;7.97;;
64351;SDS011;50680;52.626;-8.668;2023-06-14T13:57:41;10.02;;;7.63;;
64351;SDS011;50680;52.626;-8.668;2023-06-14T14:00:08;12.48;;;7.93;;
64351;SDS011;50680;52.626;-8.668;2023-06-14T14:02:35;11.65;;;7.97;;
64351;SDS011;50680;52.626;-8.668;2023-06-14T14:05:02;12.25;;;8.50;;
64351;SDS011;50680;52.626;-8.668;2023-06-14T14:07:29;10.43;;;8.48;;
64351;SDS011;50680;52.626;-8.668;2023-06-14T14:09:56;12.45;;;8.73;;
64351;SDS011;50680;52.626;-8.668;2023-06-14T14:12:23;11.57;;;9.23;;
64351;SDS011;50680;52.626;-8.668;2023-06-14T14:14:51;11.07;;;9.25;;
64351;SDS011;50680;52.626;-8.668;2023-06-14T14:17:18;13.43;;;9.18;;
64351;SDS011;50680;52.626;-8.668;2023-06-14T14:19:45;11.65;;;8.65;;
64351;SDS011;50680;52.626;-8.668;2023-06-14T14:22:12;11.57;;;8.45;;
64351;SDS011;50680;52.626;-8.668;2023-06-14T14:24:39;9.25;;;8.35;;
64351;SDS011;50680;52.626;-8.668;2023-06-14T14:27:06;14.18;;;7.82;;
64351;SDS011;50680;52.626;-8.668;2023-06-14T14:29:34;12.68;;;8.82;;
64351;SDS011;50680;52.626;-8.668;2023-06-14T14:32:02;16.02;;;8.82;;
64351;SDS011;50680;52.626;-8.668;2023-06-14T14:34:29;12.98;;;7.32;;
64351;SDS011;50680;52.626;-8.668;2023-06-14T14:36:56;13.20;;;7.68;;
64351;SDS011;50680;52.626;-8.668;2023-06-14T14:39:22;12.77;;;8.23;;
64351;SDS011;50680;52.626;-8.668;2023-06-14T14:41:50;15.52;;;8.52;;
64351;SDS011;50680;52.626;-8.668;2023-06-14T14:44:16;10.82;;;7.97;;
64351;SDS011;50680;52.626;-8.668;2023-06-14T14:46:44;14.43;;;8.38;;
64351;SDS011;50680;52.626;-8.668;2023-06-14T14:49:11;11.20;;;7.68;;
64351;SDS011;50680;52.626;-8.668;2023-06-14T14:51:38;15.38;;;7.53;;
64351;SDS011;50680;52.626;-8.668;2023-06-14T14:54:06;10.90;;;7.72;;
64351;SDS011;50680;52.626;-8.668;2023-06-14T14:56:33;18.67;;;8.02;;
64351;SDS011;50680;52.626;-8.668;2023-06-14T14:59:01;14.07;;;8.38;;
64351;SDS011;50680;52.626;-8.668;2023-06-14T15:01:29;11.93;;;9.13;;
64351;SDS011;50680;52.626;-8.668;2023-06-14T15:03:56;14.10;;;8.93;;
64351;SDS011;50680;52.626;-8.668;2023-06-14T15:06:25;12.02;;;9.45;;
64351;SDS011;50680;52.626;-8.668;2023-06-14T15:08:52;12.18;;;8.45;;
64351;SDS011;50680;52.626;-8.668;2023-06-14T15:11:19;11.45;;;8.57;;
64351;SDS011;50680;52.626;-8.668;2023-06-14T15:13:47;14.23;;;8.88;;
64351;SDS011;50680;52.626;-8.668;2023-06-14T15:16:15;9.63;;;7.90;;
64351;SDS011;50680;52.626;-8.668;2023-06-14T15:18:42;11.20;;;8.48;;
64351;SDS011;50680;52.626;-8.668;2023-06-14T15:21:08;10.73;;;8.35;;
64351;SDS011;50680;52.626;-8.668;2023-06-14T15:23:36;13.43;;;7.97;;
64351;SDS011;50680;52.626;-8.668;2023-06-14T15:26:02;12.00;;;8.77;;
64351;SDS011;50680;52.626;-8.668;2023-06-14T15:28:29;11.30;;;7.70;;
64351;SDS011;50680;52.626;-8.668;2023-06-14T15:31:16;12.52;;;8.52;;
64351;SDS011;50680;52.626;-8.668;2023-06-14T15:35:05;10.25;;;7.82;;
64351;SDS011;50680;52.626;-8.668;2023-06-14T15:39:10;14.38;;;8.02;;
64351;SDS011;50680;52.626;-8.668;2023-06-14T15:42:19;16.20;;;8.80;;
64351;SDS011;50680;52.626;-8.668;2023-06-14T15:45:33;9.35;;;8.00;;
64351;SDS011;50680;52.626;-8.668;2023-06-14T15:48:30;12.13;;;8.52;;
64351;SDS011;50680;52.626;-8.668;2023-06-14T15:52:11;11.00;;;7.53;;
64351;SDS011;50680;52.626;-8.668;2023-06-14T15:54:52;26.60;;;8.85;;
64351;SDS011;50680;52.626;-8.668;2023-06-14T15:57:42;15.32;;;8.02;;
64351;SDS011;50680;52.626;-8.668;2023-06-14T16:01:41;17.70;;;7.57;;
64351;SDS011;50680;52.626;-8.668;2023-06-14T16:04:08;13.95;;;7.38;;
64351;SDS011;50680;52.626;-8.668;2023-06-14T16:06:35;13.43;;;8.10;;
64351;SDS011;50680;52.626;-8.668;2023-06-14T16:09:02;15.77;;;7.78;;
64351;SDS011;50680;52.626;-8.668;2023-06-14T16:11:29;16.63;;;8.73;;
64351;SDS011;50680;52.626;-8.668;2023-06-14T16:13:56;21.10;;;9.88;;
64351;SDS011;50680;52.626;-8.668;2023-06-14T16:16:23;22.70;;;10.75;;
64351;SDS011;50680;52.626;-8.668;2023-06-14T16:18:50;27.35;;;12.68;;
64351;SDS011;50680;52.626;-8.668;2023-06-14T16:21:17;38.67;;;12.77;;
64351;SDS011;50680;52.626;-8.668;2023-06-14T16:23:44;23.33;;;12.23;;
64351;SDS011;50680;52.626;-8.668;2023-06-14T16:26:11;17.48;;;12.38;;
64351;SDS011;50680;52.626;-8.668;2023-06-14T16:28:39;14.20;;;12.70;;
64351;SDS011;50680;52.626;-8.668;2023-06-14T16:31:08;15.93;;;12.90;;
64351;SDS011;50680;52.626;-8.668;2023-06-14T16:33:36;17.60;;;13.88;;
64351;SDS011;50680;52.626;-8.668;2023-06-14T16:36:03;14.65;;;12.40;;
64351;SDS011;50680;52.626;-8.668;2023-06-14T16:38:30;18.65;;;13.35;;
64351;SDS011;50680;52.626;-8.668;2023-06-14T16:40:58;18.98;;;13.32;;
64351;SDS011;50680;52.626;-8.668;2023-06-14T16:43:25;19.00;;;12.85;;
64351;SDS011;50680;52.626;-8.668;2023-06-14T16:45:52;19.45;;;12.98;;
64351;SDS011;50680;52.626;-8.668;2023-06-14T16:48:19;14.07;;;11.77;;
64351;SDS011;50680;52.626;-8.668;2023-06-14T16:50:46;13.18;;;11.45;;
64351;SDS011;50680;52.626;-8.668;2023-06-14T16:53:13;16.60;;;12.20;;
64351;SDS011;50680;52.626;-8.668;2023-06-14T16:55:40;13.60;;;12.20;;
64351;SDS011;50680;52.626;-8.668;2023-06-14T16:58:07;16.13;;;11.60;;
64351;SDS011;50680;52.626;-8.668;2023-06-14T17:00:34;13.27;;;10.50;;
64351;SDS011;50680;52.626;-8.668;2023-06-14T17:03:01;13.90;;;10.98;;
64351;SDS011;50680;52.626;-8.668;2023-06-14T17:05:29;11.57;;;10.38;;
64351;SDS011;50680;52.626;-8.668;2023-06-14T17:07:56;12.82;;;10.15;;
64351;SDS011;50680;52.626;-8.668;2023-06-14T17:10:23;11.90;;;10.30;;
64351;SDS011;50680;52.626;-8.668;2023-06-14T17:12:49;12.80;;;10.30;;
64351;SDS011;50680;52.626;-8.668;2023-06-14T17:15:16;13.45;;;10.45;;
64351;SDS011;50680;52.626;-8.668;2023-06-14T17:17:43;11.95;;;9.95;;
64351;SDS011;50680;52.626;-8.668;2023-06-14T17:20:10;10.10;;;8.13;;
64351;SDS011;50680;52.626;-8.668;2023-06-14T17:22:37;10.95;;;8.60;;
64351;SDS011;50680;52.626;-8.668;2023-06-14T17:25:07;11.25;;;8.65;;
64351;SDS011;50680;52.626;-8.668;2023-06-14T17:27:34;10.27;;;8.18;;
64351;SDS011;50680;52.626;-8.668;2023-06-14T17:30:01;8.27;;;7.47;;
64351;SDS011;50680;52.626;-8.668;2023-06-14T17:32:28;11.05;;;8.10;;
64351;SDS011;50680;52.626;-8.668;2023-06-14T17:34:55;7.88;;;7.07;;
64351;SDS011;50680;52.626;-8.668;2023-06-14T17:37:21;8.98;;;7.13;;
64351;SDS011;50680;52.626;-8.668;2023-06-14T17:39:48;8.60;;;7.32;;
64351;SDS011;50680;52.626;-8.668;2023-06-14T17:42:15;11.05;;;7.60;;
64351;SDS011;50680;52.626;-8.668;2023-06-14T17:44:42;11.00;;;8.63;;
64351;SDS011;50680;52.626;-8.668;2023-06-14T17:47:10;9.57;;;7.72;;
64351;SDS011;50680;52.626;-8.668;2023-06-14T17:49:52;11.82;;;8.18;;
64351;SDS011;50680;52.626;-8.668;2023-06-14T17:52:20;13.15;;;7.55;;
64351;SDS011;50680;52.626;-8.668;2023-06-14T17:54:48;11.32;;;8.07;;
64351;SDS011;50680;52.626;-8.668;2023-06-14T17:57:15;10.90;;;7.80;;
64351;SDS011;50680;52.626;-8.668;2023-06-14T17:59:42;11.27;;;8.85;;
64351;SDS011;50680;52.626;-8.668;2023-06-14T18:02:09;15.43;;;10.00;;
64351;SDS011;50680;52.626;-8.668;2023-06-14T18:04:36;17.25;;;10.18;;
64351;SDS011;50680;52.626;-8.668;2023-06-14T18:07:03;14.93;;;8.27;;
64351;SDS011;50680;52.626;-8.668;2023-06-14T18:12:16;14.13;;;9.80;;
64351;SDS011;50680;52.626;-8.668;2023-06-14T18:14:42;19.38;;;9.75;;
64351;SDS011;50680;52.626;-8.668;2023-06-14T18:17:09;14.57;;;10.70;;
64351;SDS011;50680;52.626;-8.668;2023-06-14T18:19:36;15.27;;;9.80;;
64351;SDS011;50680;52.626;-8.668;2023-06-14T18:22:03;16.90;;;11.13;;
64351;SDS011;50680;52.626;-8.668;2023-06-14T18:24:31;16.88;;;11.02;;
64351;SDS011;50680;52.626;-8.668;2023-06-14T18:26:59;21.08;;;11.75;;
64351;SDS011;50680;52.626;-8.668;2023-06-14T18:29:27;17.27;;;11.23;;
64351;SDS011;50680;52.626;-8.668;2023-06-14T18:31:54;15.60;;;12.32;;
64351;SDS011;50680;52.626;-8.668;2023-06-14T18:34:23;26.10;;;14.73;;
64351;SDS011;50680;52.626;-8.668;2023-06-14T18:36:50;18.15;;;13.32;;
64351;SDS011;50680;52.626;-8.668;2023-06-14T18:39:19;19.40;;;13.48;;
64351;SDS011;50680;52.626;-8.668;2023-06-14T18:41:46;21.15;;;14.85;;
64351;SDS011;50680;52.626;-8.668;2023-06-14T18:44:13;19.15;;;13.88;;
64351;SDS011;50680;52.626;-8.668;2023-06-14T18:46:40;25.77;;;14.77;;
64351;SDS011;50680;52.626;-8.668;2023-06-14T18:49:09;22.08;;;15.18;;
64351;SDS011;50680;52.626;-8.668;2023-06-14T18:51:36;22.17;;;16.17;;
64351;SDS011;50680;52.626;-8.668;2023-06-14T18:54:05;21.25;;;14.75;;
64351;SDS011;50680;52.626;-8.668;2023-06-14T18:56:32;20.98;;;15.93;;
64351;SDS011;50680;52.626;-8.668;2023-06-14T18:59:01;19.85;;;14.60;;
64351;SDS011;50680;52.626;-8.668;2023-06-14T19:01:29;20.83;;;15.50;;
64351;SDS011;50680;52.626;-8.668;2023-06-14T19:03:57;22.92;;;15.15;;
64351;SDS011;50680;52.626;-8.668;2023-06-14T19:06:24;22.73;;;14.10;;
64351;SDS011;50680;52.626;-8.668;2023-06-14T19:08:52;18.17;;;12.68;;
64351;SDS011;50680;52.626;-8.668;2023-06-14T19:11:19;10.73;;;8.80;;
64351;SDS011;50680;52.626;-8.668;2023-06-14T19:13:46;10.50;;;8.10;;
64351;SDS011;50680;52.626;-8.668;2023-06-14T19:16:14;18.45;;;8.07;;
64351;SDS011;50680;52.626;-8.668;2023-06-14T19:18:41;9.95;;;7.05;;
64351;SDS011;50680;52.626;-8.668;2023-06-14T19:21:08;9.63;;;6.90;;
64351;SDS011;50680;52.626;-8.668;2023-06-14T19:23:35;11.07;;;7.15;;
64351;SDS011;50680;52.626;-8.668;2023-06-14T19:26:04;11.23;;;6.85;;
64351;SDS011;50680;52.626;-8.668;2023-06-14T19:28:31;9.85;;;6.65;;
64351;SDS011;50680;52.626;-8.668;2023-06-14T19:30:58;13.25;;;6.93;;
64351;SDS011;50680;52.626;-8.668;2023-06-14T19:33:25;12.52;;;7.30;;
64351;SDS011;50680;52.626;-8.668;2023-06-14T19:35:51;11.52;;;7.70;;
64351;SDS011;50680;52.626;-8.668;2023-06-14T19:38:19;10.20;;;8.15;;
64351;SDS011;50680;52.626;-8.668;2023-06-14T19:40:45;13.60;;;8.02;;
64351;SDS011;50680;52.626;-8.668;2023-06-14T19:43:12;12.40;;;7.75;;
64351;SDS011;50680;52.626;-8.668;2023-06-14T19:45:39;13.10;;;8.23;;
64351;SDS011;50680;52.626;-8.668;2023-06-14T19:48:06;14.27;;;8.70;;
64351;SDS011;50680;52.626;-8.668;2023-06-14T19:50:46;14.55;;;8.90;;
64351;SDS011;50680;52.626;-8.668;2023-06-14T19:53:13;18.98;;;9.15;;
64351;SDS011;50680;52.626;-8.668;2023-06-14T19:55:40;17.85;;;9.32;;
64351;SDS011;50680;52.626;-8.668;2023-06-14T19:58:07;25.90;;;10.45;;
64351;SDS011;50680;52.626;-8.668;2023-06-14T20:00:34;19.38;;;10.35;;
64351;SDS011;50680;52.626;-8.668;2023-06-14T20:03:01;14.10;;;10.82;;
64351;SDS011;50680;52.626;-8.668;2023-06-14T20:05:28;18.83;;;11.25;;
64351;SDS011;50680;52.626;-8.668;2023-06-14T20:07:57;20.67;;;11.02;;
64351;SDS011;50680;52.626;-8.668;2023-06-14T20:10:24;19.20;;;10.85;;
64351;SDS011;50680;52.626;-8.668;2023-06-14T20:12:51;24.50;;;11.90;;
64351;SDS011;50680;52.626;-8.668;2023-06-14T20:15:18;23.35;;;11.88;;
64351;SDS011;50680;52.626;-8.668;2023-06-14T20:17:45;23.60;;;12.77;;
64351;SDS011;50680;52.626;-8.668;2023-06-14T20:20:12;22.95;;;12.32;;
64351;SDS011;50680;52.626;-8.668;2023-06-14T20:22:39;21.20;;;13.70;;
64351;SDS011;50680;52.626;-8.668;2023-06-14T20:25:07;26.77;;;13.13;;
64351;SDS011;50680;52.626;-8.668;2023-06-14T20:27:35;26.45;;;13.10;;
64351;SDS011;50680;52.626;-8.668;2023-06-14T20:30:03;26.45;;;13.30;;
64351;SDS011;50680;52.626;-8.668;2023-06-14T20:32:31;24.63;;;13.68;;
64351;SDS011;50680;52.626;-8.668;2023-06-14T20:34:58;23.33;;;15.18;;
64351;SDS011;50680;52.626;-8.668;2023-06-14T20:37:25;20.92;;;13.80;;
64351;SDS011;50680;52.626;-8.668;2023-06-14T20:39:53;23.55;;;14.48;;
64351;SDS011;50680;52.626;-8.668;2023-06-14T20:42:29;23.35;;;14.23;;
64351;SDS011;50680;52.626;-8.668;2023-06-14T20:44:56;26.73;;;15.23;;
64351;SDS011;50680;52.626;-8.668;2023-06-14T20:47:24;27.33;;;14.57;;
64351;SDS011;50680;52.626;-8.668;2023-06-14T20:49:51;31.92;;;15.25;;
64351;SDS011;50680;52.626;-8.668;2023-06-14T20:52:18;28.95;;;16.63;;
64351;SDS011;50680;52.626;-8.668;2023-06-14T20:54:45;37.88;;;16.60;;
64351;SDS011;50680;52.626;-8.668;2023-06-14T20:57:12;28.30;;;16.00;;
64351;SDS011;50680;52.626;-8.668;2023-06-14T20:59:44;33.28;;;16.80;;
64351;SDS011;50680;52.626;-8.668;2023-06-14T21:02:11;27.70;;;16.10;;
64351;SDS011;50680;52.626;-8.668;2023-06-14T21:04:44;27.77;;;16.35;;
64351;SDS011;50680;52.626;-8.668;2023-06-14T21:07:12;27.58;;;16.65;;
64351;SDS011;50680;52.626;-8.668;2023-06-14T21:09:39;24.52;;;16.08;;
64351;SDS011;50680;52.626;-8.668;2023-06-14T21:12:07;22.52;;;15.23;;
64351;SDS011;50680;52.626;-8.668;2023-06-14T21:14:35;28.42;;;15.82;;
64351;SDS011;50680;52.626;-8.668;2023-06-14T21:17:02;26.00;;;16.02;;
64351;SDS011;50680;52.626;-8.668;2023-06-14T21:19:32;31.38;;;16.92;;
64351;SDS011;50680;52.626;-8.668;2023-06-14T21:21:59;29.88;;;16.40;;
64351;SDS011;50680;52.626;-8.668;2023-06-14T21:24:26;27.67;;;16.75;;
64351;SDS011;50680;52.626;-8.668;2023-06-14T21:26:53;24.77;;;15.93;;
64351;SDS011;50680;52.626;-8.668;2023-06-14T21:29:20;26.27;;;16.30;;
64351;SDS011;50680;52.626;-8.668;2023-06-14T21:31:47;23.10;;;14.98;;
64351;SDS011;50680;52.626;-8.668;2023-06-14T21:34:14;24.42;;;15.25;;
64351;SDS011;50680;52.626;-8.668;2023-06-14T21:36:41;27.42;;;14.98;;
64351;SDS011;50680;52.626;-8.668;2023-06-14T21:39:07;22.48;;;14.43;;
64351;SDS011;50680;52.626;-8.668;2023-06-14T21:41:35;24.13;;;15.45;;
64351;SDS011;50680;52.626;-8.668;2023-06-14T21:44:04;20.17;;;13.32;;
64351;SDS011;50680;52.626;-8.668;2023-06-14T21:46:32;23.20;;;14.40;;
64351;SDS011;50680;52.626;-8.668;2023-06-14T21:48:59;24.15;;;14.65;;
64351;SDS011;50680;52.626;-8.668;2023-06-14T21:51:26;28.88;;;15.63;;
64351;SDS011;50680;52.626;-8.668;2023-06-14T21:53:54;25.42;;;14.43;;
64351;SDS011;50680;52.626;-8.668;2023-06-14T21:56:21;22.23;;;13.40;;
64351;SDS011;50680;52.626;-8.668;2023-06-14T21:58:48;26.38;;;13.25;;
64351;SDS011;50680;52.626;-8.668;2023-06-14T22:01:15;24.08;;;13.88;;
64351;SDS011;50680;52.626;-8.668;2023-06-14T22:03:42;27.48;;;13.35;;
64351;SDS011;50680;52.626;-8.668;2023-06-14T22:06:09;26.20;;;14.85;;
64351;SDS011;50680;52.626;-8.668;2023-06-14T22:08:36;23.95;;;14.60;;
64351;SDS011;50680;52.626;-8.668;2023-06-14T22:11:03;28.42;;;14.55;;
64351;SDS011;50680;52.626;-8.668;2023-06-14T22:13:36;23.52;;;14.93;;
64351;SDS011;50680;52.626;-8.668;2023-06-14T22:16:06;27.27;;;14.43;;
64351;SDS011;50680;52.626;-8.668;2023-06-14T22:18:33;20.88;;;13.57;;
64351;SDS011;50680;52.626;-8.668;2023-06-14T22:21:02;21.08;;;13.55;;
64351;SDS011;50680;52.626;-8.668;2023-06-14T22:23:29;25.65;;;13.60;;
64351;SDS011;50680;52.626;-8.668;2023-06-14T22:26:06;24.77;;;13.63;;
64351;SDS011;50680;52.626;-8.668;2023-06-14T22:28:34;26.80;;;13.48;;
64351;SDS011;50680;52.626;-8.668;2023-06-14T22:31:08;23.38;;;14.02;;
64351;SDS011;50680;52.626;-8.668;2023-06-14T22:33:37;18.95;;;12.88;;
64351;SDS011;50680;52.626;-8.668;2023-06-14T22:38:42;20.95;;;12.32;;
64351;SDS011;50680;52.626;-8.668;2023-06-14T22:41:12;22.45;;;12.65;;
64351;SDS011;50680;52.626;-8.668;2023-06-14T22:43:40;18.83;;;11.23;;
64351;SDS011;50680;52.626;-8.668;2023-06-14T22:46:09;19.85;;;11.73;;
64351;SDS011;50680;52.626;-8.668;2023-06-14T22:48:46;16.20;;;10.85;;
64351;SDS011;50680;52.626;-8.668;2023-06-14T22:53:44;18.23;;;11.13;;
64351;SDS011;50680;52.626;-8.668;2023-06-14T22:56:12;16.80;;;10.50;;
64351;SDS011;50680;52.626;-8.668;2023-06-14T22:58:40;16.15;;;10.88;;
64351;SDS011;50680;52.626;-8.668;2023-06-14T23:01:11;24.30;;;11.32;;
64351;SDS011;50680;52.626;-8.668;2023-06-14T23:03:42;18.55;;;10.88;;
64351;SDS011;50680;52.626;-8.668;2023-06-14T23:06:16;16.45;;;10.90;;
64351;SDS011;50680;52.626;-8.668;2023-06-14T23:08:52;20.90;;;11.02;;
64351;SDS011;50680;52.626;-8.668;2023-06-14T23:11:21;16.38;;;11.63;;
64351;SDS011;50680;52.626;-8.668;2023-06-14T23:13:49;18.92;;;11.10;;
64351;SDS011;50680;52.626;-8.668;2023-06-14T23:16:22;16.23;;;10.68;;
64351;SDS011;50680;52.626;-8.668;2023-06-14T23:18:50;17.55;;;11.73;;
64351;SDS011;50680;52.626;-8.668;2023-06-14T23:21:18;16.85;;;11.50;;
64351;SDS011;50680;52.626;-8.668;2023-06-14T23:23:45;16.50;;;10.43;;
64351;SDS011;50680;52.626;-8.668;2023-06-14T23:26:17;18.05;;;10.23;;
64351;SDS011;50680;52.626;-8.668;2023-06-14T23:28:44;15.80;;;10.40;;
64351;SDS011;50680;52.626;-8.668;2023-06-14T23:31:14;16.75;;;10.10;;
64351;SDS011;50680;52.626;-8.668;2023-06-14T23:33:41;17.73;;;10.73;;
64351;SDS011;50680;52.626;-8.668;2023-06-14T23:36:08;15.15;;;10.32;;
64351;SDS011;50680;52.626;-8.668;2023-06-14T23:38:35;19.77;;;10.02;;
64351;SDS011;50680;52.626;-8.668;2023-06-14T23:41:09;17.38;;;9.95;;
64351;SDS011;50680;52.626;-8.668;2023-06-14T23:43:37;16.80;;;10.80;;
64351;SDS011;50680;52.626;-8.668;2023-06-14T23:48:38;14.30;;;10.02;;
64351;SDS011;50680;52.626;-8.668;2023-06-14T23:51:05;13.13;;;9.07;;
64351;SDS011;50680;52.626;-8.668;2023-06-14T23:53:32;14.38;;;9.60;;
64351;SDS011;50680;52.626;-8.668;2023-06-14T23:56:04;16.52;;;10.05;;
64351;SDS011;50680;52.626;-8.668;2023-06-14T23:58:32;14.75;;;10.07;;
